createdAt,value
2023-01-07T00:01:24.778Z,100903.68
2023-01-07T00:03:54.220Z,100903.17
2023-01-07T00:06:23.523Z,100899.60
2023-01-07T00:08:52.227Z,100897.45
2023-01-07T00:11:23.221Z,100893.66
2023-01-07T00:13:52.633Z,100893.52
2023-01-07T00:16:21.965Z,100893.27
2023-01-07T00:18:50.695Z,100894.88
2023-01-07T00:21:18.937Z,100897.29
2023-01-07T00:23:46.951Z,100894.71
2023-01-07T00:26:19.460Z,100891.08
2023-01-07T00:28:48.985Z,100893.67
2023-01-07T00:31:18.131Z,100890.36
2023-01-07T00:33:58.516Z,100890.05
2023-01-07T00:36:28.990Z,100894.21
2023-01-07T00:38:58.062Z,100889.63
2023-01-07T00:41:25.224Z,100890.42
2023-01-07T00:43:52.677Z,100884.73
2023-01-07T00:46:19.269Z,100887.61
2023-01-07T00:48:46.382Z,100893.73
2023-01-07T00:51:15.097Z,100900.89
2023-01-07T00:53:42.465Z,100904.73
2023-01-07T00:56:10.290Z,100903.19
2023-01-07T00:58:37.234Z,100899.66
2023-01-07T01:01:04.217Z,100900.55
2023-01-07T01:03:32.600Z,100893.79
2023-01-07T01:06:04.993Z,100891.40
2023-01-07T01:08:32.373Z,100896.91
2023-01-07T01:11:08.870Z,100892.23
2023-01-07T01:13:36.398Z,100888.42
2023-01-07T01:16:11.284Z,100894.90
2023-01-07T01:18:37.901Z,100897.98
2023-01-07T01:21:10.936Z,100895.63
2023-01-07T01:23:37.678Z,100896.47
2023-01-07T01:26:05.512Z,100897.03
2023-01-07T01:28:33.986Z,100894.02
2023-01-07T01:31:01.187Z,100899.92
2023-01-07T01:33:32.010Z,100898.15
2023-01-07T01:35:58.769Z,100899.19
2023-01-07T01:38:25.394Z,100894.81
2023-01-07T01:40:51.900Z,100880.27
2023-01-07T01:43:32.517Z,100875.42
2023-01-07T01:46:09.855Z,100878.39
2023-01-07T01:48:41.153Z,100885.86
2023-01-07T01:51:09.636Z,100891.41
2023-01-07T01:53:37.347Z,100894.13
2023-01-07T01:56:10.424Z,100893.54
2023-01-07T01:58:45.037Z,100890.39
2023-01-07T02:01:12.856Z,100887.42
2023-01-07T02:03:39.567Z,100885.09
2023-01-07T02:06:12.126Z,100882.73
2023-01-07T02:08:38.550Z,100884.16
2023-01-07T02:11:24.479Z,100892.96
2023-01-07T02:14:08.085Z,100892.27
2023-01-07T02:16:40.686Z,100892.27
2023-01-07T02:19:36.587Z,100882.71
2023-01-07T02:22:08.256Z,100880.73
2023-01-07T02:25:12.870Z,100882.48
2023-01-07T02:28:04.289Z,100876.86
2023-01-07T02:30:46.186Z,100879.54
2023-01-07T02:33:20.944Z,100882.04
2023-01-07T02:36:35.798Z,100876.69
2023-01-07T02:39:36.984Z,100872.92
2023-01-07T02:42:18.831Z,100869.13
2023-01-07T02:45:18.844Z,100866.67
2023-01-07T02:48:11.200Z,100860.69
2023-01-07T02:50:37.746Z,100855.98
2023-01-07T02:53:10.054Z,100855.25
2023-01-07T02:55:55.281Z,100858.62
2023-01-07T02:58:45.514Z,100851.85
2023-01-07T03:02:02.826Z,100849.46
2023-01-07T03:04:46.109Z,100846.63
2023-01-07T03:07:35.471Z,100834.60
2023-01-07T03:10:10.964Z,100824.04
2023-01-07T03:12:59.242Z,100818.38
2023-01-07T03:15:43.841Z,100816.73
2023-01-07T03:18:26.961Z,100823.26
2023-01-07T03:21:03.710Z,100830.46
2023-01-07T03:23:30.668Z,100838.10
2023-01-07T03:26:02.540Z,100838.33
2023-01-07T03:28:32.550Z,100840.67
2023-01-07T03:31:01.399Z,100839.21
2023-01-07T03:33:32.129Z,100830.27
2023-01-07T03:36:01.217Z,100822.59
2023-01-07T03:38:29.163Z,100829.44
2023-01-07T03:40:58.803Z,100836.77
2023-01-07T03:43:25.368Z,100827.80
2023-01-07T03:45:53.476Z,100824.27
2023-01-07T03:48:20.339Z,100825.80
2023-01-07T03:50:48.222Z,100831.16
2023-01-07T03:53:14.839Z,100834.76
2023-01-07T03:55:44.229Z,100832.73
2023-01-07T03:58:10.824Z,100834.81
2023-01-07T04:00:37.406Z,100830.46
2023-01-07T04:03:11.262Z,100836.52
2023-01-07T04:05:40.571Z,100844.46
2023-01-07T04:08:07.844Z,100844.52
2023-01-07T04:10:36.605Z,100835.08
2023-01-07T04:13:03.348Z,100836.77
2023-01-07T04:15:30.291Z,100835.91
2023-01-07T04:17:57.025Z,100835.28
2023-01-07T04:20:24.139Z,100837.84
2023-01-07T04:22:50.990Z,100844.23
2023-01-07T04:25:17.649Z,100843.52
2023-01-07T04:27:44.583Z,100841.45
2023-01-07T04:30:11.633Z,100839.14
2023-01-07T04:32:38.410Z,100837.16
2023-01-07T04:35:05.336Z,100833.92
2023-01-07T04:37:31.966Z,100832.61
2023-01-07T04:39:58.971Z,100835.80
2023-01-07T04:42:25.989Z,100837.04
2023-01-07T04:44:53.270Z,100836.30
2023-01-07T04:47:19.962Z,100837.36
2023-01-07T04:49:47.050Z,100839.08
2023-01-07T04:52:13.965Z,100838.96
2023-01-07T04:54:40.820Z,100838.48
2023-01-07T04:57:07.816Z,100841.09
2023-01-07T04:59:34.686Z,100842.34
2023-01-07T05:02:01.742Z,100845.21
2023-01-07T05:04:31.061Z,100850.91
2023-01-07T05:06:57.971Z,100850.14
2023-01-07T05:09:25.548Z,100848.34
2023-01-07T05:11:52.111Z,100847.23
2023-01-07T05:14:19.097Z,100851.31
2023-01-07T05:16:47.125Z,100852.39
2023-01-07T05:19:14.065Z,100854.65
2023-01-07T05:21:43.249Z,100847.27
2023-01-07T05:24:10.473Z,100847.22
2023-01-07T05:26:37.190Z,100847.86
2023-01-07T05:29:04.336Z,100850.09
2023-01-07T05:31:32.099Z,100852.19
2023-01-07T05:33:58.775Z,100853.02
2023-01-07T05:36:25.491Z,100855.38
2023-01-07T05:38:53.910Z,100850.95
2023-01-07T05:41:20.780Z,100849.80
2023-01-07T05:43:47.838Z,100847.30
2023-01-07T05:46:14.328Z,100850.41
2023-01-07T05:48:40.958Z,100852.48
2023-01-07T05:51:07.474Z,100850.89
2023-01-07T05:53:34.137Z,100851.14
2023-01-07T05:56:00.700Z,100850.55
2023-01-07T05:58:28.197Z,100852.96
2023-01-07T06:00:55.405Z,100856.55
2023-01-07T06:03:22.215Z,100854.03
2023-01-07T06:05:49.179Z,100855.59
2023-01-07T06:08:15.817Z,100858.23
2023-01-07T06:10:43.736Z,100855.26
2023-01-07T06:13:10.223Z,100855.55
2023-01-07T06:15:36.979Z,100854.46
2023-01-07T06:18:03.638Z,100851.60
2023-01-07T06:20:33.996Z,100855.64
2023-01-07T06:23:03.706Z,100858.98
2023-01-07T06:25:30.183Z,100857.23
2023-01-07T06:27:57.802Z,100856.59
2023-01-07T06:30:24.800Z,100862.16
2023-01-07T06:32:51.279Z,100858.53
2023-01-07T06:35:18.102Z,100864.44
2023-01-07T06:37:44.614Z,100857.89
2023-01-07T06:40:12.214Z,100854.13
2023-01-07T06:42:38.947Z,100859.77
2023-01-07T06:45:06.517Z,100869.28
2023-01-07T06:47:33.549Z,100870.48
2023-01-07T06:50:00.151Z,100871.01
2023-01-07T06:52:26.651Z,100874.92
2023-01-07T06:54:53.222Z,100871.95
2023-01-07T06:57:19.665Z,100871.41
2023-01-07T06:59:46.179Z,100869.62
2023-01-07T07:02:21.788Z,100867.48
2023-01-07T07:04:49.420Z,100868.65
2023-01-07T07:07:16.155Z,100866.81
2023-01-07T07:09:43.015Z,100869.72
2023-01-07T07:12:10.081Z,100866.19
2023-01-07T07:14:36.611Z,100866.52
2023-01-07T07:17:04.295Z,100868.05
2023-01-07T07:19:30.728Z,100869.65
2023-01-07T07:21:57.300Z,100868.02
2023-01-07T07:24:24.026Z,100868.88
2023-01-07T07:26:51.983Z,100870.95
2023-01-07T07:29:21.027Z,100873.83
2023-01-07T07:31:48.423Z,100877.94
2023-01-07T07:34:15.043Z,100879.44
2023-01-07T07:36:41.600Z,100873.15
2023-01-07T07:39:08.160Z,100878.46
2023-01-07T07:41:34.753Z,100879.59
2023-01-07T07:44:05.221Z,100876.76
2023-01-07T07:46:31.775Z,100878.96
2023-01-07T07:48:58.336Z,100877.54
2023-01-07T07:51:24.783Z,100876.09
2023-01-07T07:53:51.255Z,100871.20
2023-01-07T07:56:17.723Z,100869.30
2023-01-07T07:58:44.232Z,100868.13
2023-01-07T08:01:10.845Z,100864.67
2023-01-07T08:03:37.396Z,100861.42
2023-01-07T08:06:04.467Z,100864.57
2023-01-07T08:08:30.911Z,100864.98
2023-01-07T08:10:57.404Z,100864.03
2023-01-07T08:13:25.212Z,100869.88
2023-01-07T08:15:51.831Z,100874.83
2023-01-07T08:18:19.192Z,100872.17
2023-01-07T08:20:46.632Z,100868.61
2023-01-07T08:23:13.249Z,100868.17
2023-01-07T08:25:39.885Z,100870.55
2023-01-07T08:28:06.473Z,100871.75
2023-01-07T08:30:33.395Z,100874.78
2023-01-07T08:33:00.680Z,100872.54
2023-01-07T08:35:27.255Z,100872.79
2023-01-07T08:38:01.531Z,100879.10
2023-01-07T08:40:28.647Z,100879.58
2023-01-07T08:43:03.386Z,100880.02
2023-01-07T08:45:30.815Z,100878.10
2023-01-07T08:47:58.067Z,100879.58
2023-01-07T08:50:26.020Z,100879.48
2023-01-07T08:52:52.931Z,100878.36
2023-01-07T08:55:20.411Z,100880.82
2023-01-07T08:57:48.129Z,100882.48
2023-01-07T09:00:16.796Z,100888.00
2023-01-07T09:02:43.923Z,100885.30
2023-01-07T09:05:11.233Z,100885.91
2023-01-07T09:07:37.930Z,100886.00
2023-01-07T09:10:05.354Z,100884.15
2023-01-07T09:12:32.302Z,100881.37
2023-01-07T09:14:58.963Z,100878.40
2023-01-07T09:17:25.797Z,100876.02
2023-01-07T09:19:52.334Z,100870.67
2023-01-07T09:22:18.963Z,100866.00
2023-01-07T09:24:47.876Z,100860.93
2023-01-07T09:27:15.975Z,100862.36
2023-01-07T09:29:42.737Z,100855.46
2023-01-07T09:32:09.981Z,100857.20
2023-01-07T09:34:37.739Z,100852.77
2023-01-07T09:37:05.491Z,100849.30
2023-01-07T09:39:32.418Z,100848.39
2023-01-07T09:42:05.309Z,100847.20
2023-01-07T09:44:40.631Z,100839.81
2023-01-07T09:47:24.090Z,100836.89
2023-01-07T09:49:58.020Z,100831.66
2023-01-07T09:52:35.272Z,100824.62
2023-01-07T09:55:13.522Z,100822.94
2023-01-07T09:57:40.128Z,100818.40
2023-01-07T10:00:16.154Z,100814.54
2023-01-07T10:02:48.805Z,100811.70
2023-01-07T10:05:29.851Z,100809.75
2023-01-07T10:08:29.920Z,100811.45
2023-01-07T10:11:15.815Z,100816.36
2023-01-07T10:14:06.996Z,100811.20
2023-01-07T10:16:33.493Z,100809.27
2023-01-07T10:19:24.960Z,100809.66
2023-01-07T10:21:55.153Z,100809.61
2023-01-07T10:24:28.088Z,100807.20
2023-01-07T10:27:00.877Z,100808.31
2023-01-07T10:29:57.906Z,100802.95
2023-01-07T10:32:31.433Z,100804.65
2023-01-07T10:35:00.823Z,100805.84
2023-01-07T10:37:35.637Z,100802.08
2023-01-07T10:40:11.450Z,100801.94
2023-01-07T10:43:22.958Z,100799.60
2023-01-07T10:46:11.252Z,100794.67
2023-01-07T10:49:01.048Z,100793.14
2023-01-07T10:51:49.065Z,100793.11
2023-01-07T10:54:43.633Z,100788.12
2023-01-07T10:57:31.836Z,100784.41
2023-01-07T11:00:02.132Z,100778.58
2023-01-07T11:02:29.078Z,100778.33
2023-01-07T11:04:59.599Z,100775.05
2023-01-07T11:07:50.411Z,100774.80
2023-01-07T11:10:19.998Z,100774.97
2023-01-07T11:12:54.946Z,100771.08
2023-01-07T11:15:32.239Z,100768.81
2023-01-07T11:18:13.768Z,100767.61
2023-01-07T11:20:46.525Z,100758.11
2023-01-07T11:23:34.187Z,100758.32
2023-01-07T11:26:12.908Z,100756.67
2023-01-07T11:28:46.511Z,100754.80
2023-01-07T11:31:17.179Z,100752.54
2023-01-07T11:34:03.601Z,100744.27
2023-01-07T11:36:43.118Z,100745.83
2023-01-07T11:39:20.481Z,100741.56
2023-01-07T11:41:56.910Z,100741.20
2023-01-07T11:44:27.059Z,100742.13
2023-01-07T11:46:54.544Z,100739.15
2023-01-07T11:49:30.254Z,100736.56
2023-01-07T11:51:58.010Z,100730.30
2023-01-07T11:54:27.173Z,100727.48
2023-01-07T11:57:18.505Z,100727.91
2023-01-07T11:59:45.068Z,100727.77
2023-01-07T12:02:26.640Z,100722.78
2023-01-07T12:05:31.176Z,100720.31
2023-01-07T12:07:58.551Z,100722.46
2023-01-07T12:10:29.745Z,100716.17
2023-01-07T12:12:58.273Z,100715.27
2023-01-07T12:15:36.713Z,100716.44
2023-01-07T12:18:06.323Z,100710.52
2023-01-07T12:20:59.051Z,100708.98
2023-01-07T12:23:47.455Z,100706.70
2023-01-07T12:26:36.970Z,100705.07
2023-01-07T12:29:25.366Z,100706.00
2023-01-07T12:32:10.005Z,100702.70
2023-01-07T12:34:53.966Z,100703.79
2023-01-07T12:37:26.625Z,100705.48
2023-01-07T12:40:03.803Z,100705.34
2023-01-07T12:42:37.036Z,100702.42
2023-01-07T12:45:13.488Z,100700.48
2023-01-07T12:47:49.934Z,100700.01
2023-01-07T12:50:38.118Z,100697.80
2023-01-07T12:53:22.883Z,100696.62
2023-01-07T12:55:54.205Z,100698.38
2023-01-07T12:58:54.432Z,100698.84
2023-01-07T13:01:27.174Z,100697.52
2023-01-07T13:03:53.834Z,100698.68
2023-01-07T13:06:44.401Z,100700.09
2023-01-07T13:09:32.725Z,100699.30
2023-01-07T13:12:47.623Z,100699.98
2023-01-07T13:15:22.759Z,100700.77
2023-01-07T13:17:50.845Z,100696.23
2023-01-07T13:20:53.773Z,100694.19
2023-01-07T13:23:56.000Z,100690.59
2023-01-07T13:26:31.472Z,100694.98
2023-01-07T13:29:10.796Z,100693.75
2023-01-07T13:31:57.548Z,100694.13
2023-01-07T13:34:42.989Z,100693.45
2023-01-07T13:37:37.266Z,100690.21
2023-01-07T13:40:12.987Z,100691.00
2023-01-07T13:42:49.778Z,100687.55
2023-01-07T13:45:24.028Z,100688.63
2023-01-07T13:47:54.060Z,100690.41
2023-01-07T13:50:34.953Z,100688.55
2023-01-07T13:53:07.228Z,100690.08
2023-01-07T13:55:45.428Z,100688.16
2023-01-07T13:58:30.334Z,100689.17
2023-01-07T14:01:03.128Z,100692.35
2023-01-07T14:03:49.390Z,100687.23
2023-01-07T14:06:23.153Z,100686.30
2023-01-07T14:08:57.908Z,100687.45
2023-01-07T14:11:30.192Z,100690.45
2023-01-07T14:14:18.670Z,100690.02
2023-01-07T14:16:51.340Z,100690.85
2023-01-07T14:19:42.470Z,100687.71
2023-01-07T14:22:16.935Z,100683.33
2023-01-07T14:25:11.029Z,100683.86
2023-01-07T14:27:52.084Z,100679.30
2023-01-07T14:30:22.881Z,100675.98
2023-01-07T14:33:00.683Z,100676.75
2023-01-07T14:35:39.776Z,100677.81
2023-01-07T14:38:28.287Z,100675.96
2023-01-07T14:41:09.992Z,100673.65
2023-01-07T14:43:42.811Z,100673.91
2023-01-07T14:46:45.553Z,100672.28
2023-01-07T14:49:22.292Z,100668.98
2023-01-07T14:51:59.071Z,100669.38
2023-01-07T14:54:39.843Z,100668.29
2023-01-07T14:57:14.712Z,100667.90
2023-01-07T14:59:44.249Z,100666.13
2023-01-07T15:02:29.758Z,100664.52
2023-01-07T15:05:06.401Z,100665.61
2023-01-07T15:07:36.571Z,100661.89
2023-01-07T15:10:45.753Z,100660.27
2023-01-07T15:13:37.623Z,100657.25
2023-01-07T15:16:10.991Z,100661.05
2023-01-07T15:18:50.052Z,100658.58
2023-01-07T15:21:19.577Z,100658.89
2023-01-07T15:24:09.883Z,100657.02
2023-01-07T15:26:43.950Z,100657.13
2023-01-07T15:29:20.737Z,100658.09
2023-01-07T15:32:16.671Z,100657.41
2023-01-07T15:34:43.297Z,100658.85
2023-01-07T15:37:14.669Z,100659.08
2023-01-07T15:39:48.940Z,100663.08
2023-01-07T15:42:19.666Z,100663.61
2023-01-07T15:44:56.414Z,100659.20
2023-01-07T15:47:40.680Z,100655.96
2023-01-07T15:50:27.472Z,100658.16
2023-01-07T15:52:55.706Z,100661.40
2023-01-07T15:55:44.213Z,100660.15
2023-01-07T15:58:34.203Z,100662.85
2023-01-07T16:01:02.998Z,100662.70
2023-01-07T16:03:30.902Z,100666.17
2023-01-07T16:05:59.153Z,100662.70
2023-01-07T16:08:29.569Z,100659.80
2023-01-07T16:11:04.431Z,100661.48
2023-01-07T16:13:31.957Z,100657.88
2023-01-07T16:16:02.623Z,100656.67
2023-01-07T16:18:33.129Z,100653.67
2023-01-07T16:21:08.528Z,100650.30
2023-01-07T16:23:37.271Z,100651.88
2023-01-07T16:26:16.171Z,100651.84
2023-01-07T16:28:50.695Z,100651.19
2023-01-07T16:31:21.400Z,100650.20
2023-01-07T16:33:52.033Z,100647.46
2023-01-07T16:36:27.773Z,100647.59
2023-01-07T16:38:58.265Z,100643.95
2023-01-07T16:41:27.518Z,100640.27
2023-01-07T16:43:58.640Z,100640.62
2023-01-07T16:46:38.351Z,100639.71
2023-01-07T16:49:10.959Z,100633.24
2023-01-07T16:52:05.903Z,100634.02
2023-01-07T16:54:36.761Z,100630.42
2023-01-07T16:57:05.285Z,100629.79
2023-01-07T16:59:40.504Z,100629.63
2023-01-07T17:02:32.750Z,100629.56
2023-01-07T17:05:21.638Z,100633.55
2023-01-07T17:08:00.605Z,100634.37
2023-01-07T17:10:27.087Z,100631.23
2023-01-07T17:13:12.454Z,100626.45
2023-01-07T17:15:39.009Z,100629.70
2023-01-07T17:18:11.712Z,100627.75
2023-01-07T17:20:42.467Z,100624.02
2023-01-07T17:23:38.860Z,100621.64
2023-01-07T17:26:08.500Z,100619.61
2023-01-07T17:28:47.222Z,100620.36
2023-01-07T17:31:14.239Z,100623.59
2023-01-07T17:33:41.134Z,100622.86
2023-01-07T17:36:26.538Z,100619.98
2023-01-07T17:38:53.190Z,100620.02
2023-01-07T17:41:40.792Z,100626.17
2023-01-07T17:44:13.832Z,100624.45
2023-01-07T17:46:41.628Z,100618.98
2023-01-07T17:49:10.824Z,100619.05
2023-01-07T17:51:40.935Z,100616.91
2023-01-07T17:54:20.508Z,100617.05
2023-01-07T17:56:47.863Z,100620.30
2023-01-07T17:59:16.670Z,100620.21
2023-01-07T18:01:44.499Z,100618.81
2023-01-07T18:04:12.666Z,100624.57
2023-01-07T18:06:41.702Z,100628.84
2023-01-07T18:09:09.879Z,100627.59
2023-01-07T18:12:01.748Z,100624.98
2023-01-07T18:14:28.673Z,100627.52
2023-01-07T18:16:56.787Z,100626.61
2023-01-07T18:19:23.350Z,100627.27
2023-01-07T18:21:49.855Z,100629.06
2023-01-07T18:24:19.877Z,100626.90
2023-01-07T18:26:47.091Z,100627.45
2023-01-07T18:29:13.672Z,100626.60
2023-01-07T18:31:43.776Z,100625.14
2023-01-07T18:34:13.129Z,100625.46
2023-01-07T18:36:40.835Z,100624.29
2023-01-07T18:39:09.485Z,100620.98
2023-01-07T18:41:38.720Z,100622.23
2023-01-07T18:44:05.251Z,100621.71
2023-01-07T18:46:31.787Z,100620.43
2023-01-07T18:48:59.338Z,100620.23
2023-01-07T18:51:25.942Z,100615.50
2023-01-07T18:53:52.405Z,100613.23
2023-01-07T18:56:19.612Z,100610.77
2023-01-07T18:58:46.399Z,100610.81
2023-01-07T19:01:13.126Z,100606.67
2023-01-07T19:03:40.594Z,100603.27
2023-01-07T19:06:08.910Z,100605.75
2023-01-07T19:08:35.937Z,100603.89
2023-01-07T19:11:12.162Z,100603.88
2023-01-07T19:13:38.921Z,100600.61
2023-01-07T19:16:07.300Z,100599.98
2023-01-07T19:18:34.148Z,100598.52
2023-01-07T19:21:05.594Z,100594.78
2023-01-07T19:23:32.580Z,100591.96
2023-01-07T19:26:01.610Z,100590.39
2023-01-07T19:28:28.279Z,100595.84
2023-01-07T19:30:55.067Z,100594.83
2023-01-07T19:33:21.757Z,100592.16
2023-01-07T19:35:48.302Z,100591.70
2023-01-07T19:38:15.895Z,100587.45
2023-01-07T19:40:45.493Z,100586.53
2023-01-07T19:43:12.686Z,100586.29
2023-01-07T19:45:40.391Z,100581.54
2023-01-07T19:48:07.236Z,100583.38
2023-01-07T19:50:33.956Z,100583.44
2023-01-07T19:53:00.579Z,100585.35
2023-01-07T19:55:27.241Z,100584.59
2023-01-07T19:57:55.231Z,100585.62
2023-01-07T20:00:22.146Z,100585.73
2023-01-07T20:02:49.012Z,100584.55
2023-01-07T20:05:15.658Z,100586.09
2023-01-07T20:07:42.263Z,100586.67
2023-01-07T20:10:10.592Z,100582.21
2023-01-07T20:12:37.264Z,100581.93
2023-01-07T20:15:04.015Z,100581.45
2023-01-07T20:17:30.709Z,100575.94
2023-01-07T20:19:57.235Z,100577.70
2023-01-07T20:22:24.259Z,100582.18
2023-01-07T20:24:50.887Z,100579.55
2023-01-07T20:27:17.465Z,100580.77
2023-01-07T20:29:44.810Z,100582.23
2023-01-07T20:32:11.336Z,100579.72
2023-01-07T20:34:38.056Z,100579.48
2023-01-07T20:37:04.786Z,100582.97
2023-01-07T20:39:31.402Z,100584.48
2023-01-07T20:41:58.040Z,100583.13
2023-01-07T20:44:24.667Z,100584.45
2023-01-07T20:46:51.172Z,100586.42
2023-01-07T20:49:17.724Z,100586.66
2023-01-07T20:51:44.440Z,100587.33
2023-01-07T20:54:12.626Z,100588.71
2023-01-07T20:56:39.743Z,100585.55
2023-01-07T20:59:06.329Z,100583.52
2023-01-07T21:01:33.042Z,100585.90
2023-01-07T21:04:01.189Z,100584.81
2023-01-07T21:06:28.009Z,100583.91
2023-01-07T21:08:54.595Z,100585.42
2023-01-07T21:11:22.877Z,100588.30
2023-01-07T21:13:51.228Z,100588.09
2023-01-07T21:16:18.435Z,100591.88
2023-01-07T21:18:45.028Z,100587.39
2023-01-07T21:21:14.866Z,100588.42
2023-01-07T21:23:41.945Z,100587.30
2023-01-07T21:26:09.136Z,100583.34
2023-01-07T21:28:35.732Z,100580.95
2023-01-07T21:31:05.546Z,100576.61
2023-01-07T21:33:32.911Z,100575.02
2023-01-07T21:35:59.581Z,100574.45
2023-01-07T21:38:26.120Z,100574.88
2023-01-07T21:40:53.461Z,100573.08
2023-01-07T21:43:19.914Z,100570.91
2023-01-07T21:45:46.569Z,100567.26
2023-01-07T21:48:13.138Z,100564.95
2023-01-07T21:50:39.917Z,100563.19
2023-01-07T21:53:06.595Z,100560.44
2023-01-07T21:55:37.136Z,100560.02
2023-01-07T21:58:03.696Z,100557.60
2023-01-07T22:00:30.286Z,100559.48
2023-01-07T22:02:56.882Z,100558.96
2023-01-07T22:05:23.414Z,100562.79
2023-01-07T22:07:49.966Z,100561.66
2023-01-07T22:10:16.596Z,100560.94
2023-01-07T22:12:43.117Z,100561.06
2023-01-07T22:15:10.034Z,100559.27
2023-01-07T22:17:36.512Z,100559.16
2023-01-07T22:20:03.242Z,100561.67
2023-01-07T22:22:29.723Z,100565.30
2023-01-07T22:24:56.245Z,100564.65
2023-01-07T22:27:22.659Z,100562.00
2023-01-07T22:29:49.251Z,100559.91
2023-01-07T22:32:15.807Z,100558.43
2023-01-07T22:34:42.393Z,100556.33
2023-01-07T22:37:15.567Z,100554.56
2023-01-07T22:39:56.465Z,100550.39
2023-01-07T22:42:39.022Z,100541.98
2023-01-07T22:45:15.443Z,100539.77
2023-01-07T22:47:45.227Z,100540.65
2023-01-07T22:50:13.878Z,100537.52
2023-01-07T22:52:41.453Z,100538.14
2023-01-07T22:55:08.787Z,100537.58
2023-01-07T22:57:35.379Z,100538.45
2023-01-07T23:00:05.172Z,100535.43
2023-01-07T23:02:31.659Z,100536.09
2023-01-07T23:04:58.608Z,100534.13
2023-01-07T23:07:25.095Z,100533.73
2023-01-07T23:09:51.754Z,100530.95
2023-01-07T23:12:18.315Z,100526.48
2023-01-07T23:14:44.761Z,100525.77
2023-01-07T23:17:11.429Z,100526.73
2023-01-07T23:19:38.144Z,100524.64
2023-01-07T23:22:04.991Z,100517.90
2023-01-07T23:24:31.475Z,100519.36
2023-01-07T23:26:58.065Z,100518.95
2023-01-07T23:29:24.572Z,100515.92
2023-01-07T23:31:51.252Z,100515.67
2023-01-07T23:34:18.719Z,100515.92
2023-01-07T23:36:45.420Z,100512.40
2023-01-07T23:39:12.380Z,100513.70
2023-01-07T23:41:38.889Z,100515.42
2023-01-07T23:44:05.551Z,100514.05
2023-01-07T23:46:32.335Z,100517.88
2023-01-07T23:48:58.961Z,100520.51
2023-01-07T23:51:25.524Z,100520.70
2023-01-07T23:53:52.146Z,100517.02
2023-01-07T23:56:19.990Z,100513.84
2023-01-07T23:58:47.746Z,100513.13
